Impacts TAF Board
For situational awareness. Not to be used for flight planning purposes.
IDs:

KMSP - Minneapolis-St Paul, MN, US

Issued at 2339 UTC 22 Oct 2018
Updated at 0240 UTC 23 Oct 2018
Potential Impact None Slight Moderate High
Time0153Z 23/03Z 23/04Z 23/05Z 23/06Z 23/07Z 23/08Z 23/09Z 23/10Z 23/11Z 23/12Z 23/13Z 23/14Z 23/15Z>>
Type OBS PRVL PRVL PRVL PRVL PRVL PRVL PRVL PRVL PRVL PRVL PRVL PRVL PRVL
VIS 10 >6 >6 >6 >6 >6 >6 >6 >6 >6 >6 >6 >6 >6
CIG -- -- -- -- -- -- -- -- -- -- -- -- -- --
Cover CLR SKC SKC SKC SKC SKC SKC SKC SKC SKC SKC SKC SKC SKC
FltCat VFR VFR VFR VFR VFR VFR VFR VFR VFR VFR VFR VFR VFR VFR
WX -- -- -- -- -- -- -- -- -- -- -- -- -- --
WDir 330 310 310 310 310 310 310 310 330 330 330 330 330 330
WSpd 12 9 9 9 9 9 9 9 5 5 5 5 5 5
WGst -- -- -- -- -- -- -- -- -- -- -- -- -- --
Raw TAF
KMSP 222339Z 2300/2406 31009KT P6SM SKC
  FM231000 33005KT P6SM SKC
  FM240300 03004KT P6SM SKC


Raw METAR
KMSP 230153Z 33012KT 10SM CLR 09/M03 A3018 RMK AO2 SLP224 T00941033
KMSP 230053Z 33010KT 10SM CLR 11/M04 A3014 RMK AO2 SLP213 T01061044
KMSP 222353Z 31013KT 10SM CLR 11/M04 A3011 RMK AO2 SLP202 T01111039 10161 20111 53020

METAR Board
Radar Display
Forecast Discussion
For situational awareness. Not to be used for flight planning purposes.